Maersk_kyrenia — VRGM8 — position and weather

sailwx.info

Track history (hours):
 
Tides and Currents Weather Stations Pressure Air Temp Water Temp Dewpoint Dewpoint Depression Visibility Wind Speed Wind Dir Waves Ship Positions

Maersk_kyrenia

Last reported at 2016-Feb-09 11:00 UTC. Time now 2016-Feb-11 10:46 UTC.
Position N 18°42' E 116°48'.

Length 300 m; draft 13.8 m.

MMSI: 477733600.

Wind from 060 at 29 knots

Waves 4.0 meters (13 feet), 8 second period

Barometer 1016.4 mb
Air temperature 23.1 ° C
Visibility: greater than 5.4 NM
Dewpoint 18.4 ° C
Water temperature 23.8 ° C

Date/timePositionNaut miles runAvg speedWind from/ knotsBaromVisibWave heightAir tempDewpointWater temp
2016-Feb-09 11:00N 18°42' E 116°48'27621.2 060 / 291016.4 5.4 4.023.118.423.8
2016-Feb-08 22:00N 22°36' E 119°24'22420.4 020 / 21022.4 5.4 0.518.010.623.4
2016-Feb-08 11:00N 26°00' E 121°06'22619.7 110 / 21024.0 5.4 0.514.510.117.5
2016-Feb-07 23:31N 29°36' E 122°24'1414.8
2016-Feb-07 22:32N 29°48' E 122°15'1211.6
2016-Feb-07 21:30N 29°54' E 122°04'1 1.0
2016-Feb-07 20:33N 29°53' E 122°03'0 0.0
2016-Feb-07 15:18N 29°53' E 122°03'0 0.0
2016-Feb-07 13:24N 29°53' E 122°03'0 0.0
2016-Feb-07 12:30N 29°53' E 122°03'0 0.0
2016-Feb-07 11:24N 29°53' E 122°03'0 0.0
2016-Feb-07 05:17N 29°53' E 122°03'1 1.0
2016-Feb-07 04:32N 29°54' E 122°04'9 8.5
2016-Feb-07 03:32N 29°50' E 122°13'1110.7
2016-Feb-07 02:31N 29°45' E 122°24'1715.4
2016-Feb-07 01:24N 29°50' E 122°43'  
2016-Jan-31 22:05N 37°47' E 122°42'5913.0
2016-Jan-31 17:31N 38°39' E 122°06'1212.3
2016-Jan-31 16:33N 38°49' E 121°59'7 0.3
2016-Jan-30 13:30N 38°56' E 121°57'6 6.0
2016-Jan-30 12:33N 38°51' E 121°56'1 1.3
2016-Jan-30 11:33N 38°50' E 121°55'  
Track history (hours):
 
Tides and Currents Weather Stations Pressure Air Temp Water Temp Dewpoint Dewpoint Depression Visibility Wind Speed Wind Dir Waves Ship Positions

Maersk_kyrenia

Last reported at 2016-Feb-09 11:00 UTC. Time now 2016-Feb-11 10:46 UTC.
Position N 18°42' E 116°48'.

Length 300 m; draft 13.8 m.

MMSI: 477733600.

Wind from 060 at 29 knots

Waves 4.0 meters (13 feet), 8 second period

Barometer 1016.4 mb
Air temperature 23.1 ° C
Visibility: greater than 5.4 NM
Dewpoint 18.4 ° C
Water temperature 23.8 ° C

Date/timePositionNaut miles runAvg speedWind from/ knotsBaromVisibWave heightAir tempDewpointWater temp
2016-Feb-09 11:00N 18°42' E 116°48'27621.2 060 / 291016.4 5.4 4.023.118.423.8
2016-Feb-08 22:00N 22°36' E 119°24'22420.4 020 / 21022.4 5.4 0.518.010.623.4
2016-Feb-08 11:00N 26°00' E 121°06'22619.7 110 / 21024.0 5.4 0.514.510.117.5
2016-Feb-07 23:31N 29°36' E 122°24'1414.8
2016-Feb-07 22:32N 29°48' E 122°15'1211.6
2016-Feb-07 21:30N 29°54' E 122°04'1 1.0
2016-Feb-07 20:33N 29°53' E 122°03'0 0.0
2016-Feb-07 15:18N 29°53' E 122°03'0 0.0
2016-Feb-07 13:24N 29°53' E 122°03'0 0.0
2016-Feb-07 12:30N 29°53' E 122°03'0 0.0
2016-Feb-07 11:24N 29°53' E 122°03'0 0.0
2016-Feb-07 05:17N 29°53' E 122°03'1 1.0
2016-Feb-07 04:32N 29°54' E 122°04'9 8.5
2016-Feb-07 03:32N 29°50' E 122°13'1110.7
2016-Feb-07 02:31N 29°45' E 122°24'1715.4
2016-Feb-07 01:24N 29°50' E 122°43'  
2016-Jan-31 22:05N 37°47' E 122°42'5913.0
2016-Jan-31 17:31N 38°39' E 122°06'1212.3
2016-Jan-31 16:33N 38°49' E 121°59'7 0.3
2016-Jan-30 13:30N 38°56' E 121°57'6 6.0
2016-Jan-30 12:33N 38°51' E 121°56'1 1.3
2016-Jan-30 11:33N 38°50' E 121°55'  

Dump ship's entire track history